LGBL

Details ICAO LGBL (VOL)
Name NEA ANCHIALOS
Region Greece
Timezone Europe/Athens (UTC+3.0)
Plans Departing 45
Arriving 15
Stats Elevation 83 ft / 25 m (AMSL)
Location 39.219486° 22.794466°
Runways 1
Magnetic Variation 4.507° E
Sunrise 2018-05-22 03:11:34 UTC / 2018-05-22 06:11:34 Local
Sunset 2018-05-22 17:42:15 UTC / 2018-05-22 20:42:15 Local
Advertisement - Login to hide

Runways

ID Width Length Bearing (true) Bearing (mag) Surface Threshold Offset Overrun Length
08 148 ft / 45 m 9,033 ft / 2,753 m 81.43° 76.92° Asphalt 0 ft / 0 m 1,020 ft / 311 m
26 148 ft / 45 m 9,033 ft / 2,753 m 261.45° 256.94° Asphalt 0 ft / 0 m 960 ft / 293 m

Map

Weather


0- 5 10 15 20 25 30 35+ Temperature / ° C

Clouds and Precipitation
Forecast for 2018-05-22 18:00 UTC. Updated 3 hours ago

Ground ~20,000 ft ~40,000 ft Winds

METAR

LGBL 221950Z 10003KT 9999 FEW030 20/16 Q1018 RMK FEW180 BLU

TAF

Not found

Frequencies

Tower 122.10 MHz ALMIROS TWR
Approach 122.10 MHz ALMIROS APP
Approach 120.35 MHz ALMIROS APP
Warning: Do not use this data for real-world aviation or navigation. No guarantee of current accuracy is given.